Time;durP1;ratioP1;P1;durP2;ratioP2;P2;SDS_P1;SDS_P2;PMS_P1;PMS_P2;Temp;Humidity;BMP_temperature;BMP_pressure;BME280_temperature;BME280_humidity;BME280_pressure;Samples;Min_cycle;Max_cycle;Signal;HPM_P1;HPM_P2
2023/06/05 00:00:28;;;;;;;4.57;2.50;;;15.90;98.00;;;;;;5071671;28;20453;-67
2023/06/05 00:02:55;;;;;;;5.13;2.83;;;15.90;98.00;;;;;;5054203;28;20514;-67
2023/06/05 00:05:25;;;;;;;5.47;2.90;;;15.90;98.00;;;;;;5071776;28;20468;-67
2023/06/05 00:07:52;;;;;;;5.13;2.60;;;15.90;98.00;;;;;;5071554;28;20506;-67
2023/06/05 00:10:21;;;;;;;3.40;2.57;;;16.10;98.00;;;;;;5071422;28;20533;-67
2023/06/05 00:12:52;;;;;;;5.07;2.87;;;16.00;98.00;;;;;;5071222;28;21156;-67
2023/06/05 00:15:19;;;;;;;3.20;2.43;;;15.90;98.00;;;;;;5071465;28;20854;-66
2023/06/05 00:17:47;;;;;;;5.60;2.80;;;15.70;98.00;;;;;;5071515;28;20460;-67
2023/06/05 00:20:14;;;;;;;6.17;2.87;;;15.60;98.00;;;;;;5071368;28;20460;-67
2023/06/05 00:22:44;;;;;;;3.53;2.40;;;15.40;98.00;;;;;;5071173;28;20453;-66
2023/06/05 00:25:11;;;;;;;3.50;2.40;;;15.50;98.00;;;;;;5053686;28;20518;-66
2023/06/05 00:27:43;;;;;;;4.57;2.90;;;15.50;98.00;;;;;;5071217;28;20453;-67
2023/06/05 00:30:13;;;;;;;7.20;2.93;;;15.50;98.00;;;;;;5071065;28;20485;-67
2023/06/05 00:32:41;;;;;;;4.10;2.50;;;15.40;98.00;;;;;;5070881;28;20484;-67
2023/06/05 00:35:09;;;;;;;6.43;2.80;;;15.30;98.00;;;;;;5071013;28;20467;-66
2023/06/05 00:37:37;;;;;;;4.00;2.77;;;15.10;98.00;;;;;;5072760;28;20544;-66
2023/06/05 00:40:04;;;;;;;3.70;2.50;;;15.10;98.00;;;;;;5056838;28;20499;-67
2023/06/05 00:42:31;;;;;;;5.60;3.10;;;15.20;98.00;;;;;;5074505;28;20503;-66
2023/06/05 00:45:02;;;;;;;6.40;2.70;;;15.10;98.00;;;;;;5075041;28;20449;-67
2023/06/05 00:47:31;;;;;;;4.77;2.80;;;15.10;98.00;;;;;;5074911;28;20476;-66
2023/06/05 00:50:00;;;;;;;4.90;2.67;;;14.80;98.00;;;;;;5075103;28;20461;-67
2023/06/05 00:52:28;;;;;;;5.33;2.90;;;14.90;98.00;;;;;;5074282;28;20452;-66
2023/06/05 00:54:55;;;;;;;4.20;2.73;;;14.90;98.00;;;;;;5075070;28;20461;-66
2023/06/05 00:57:24;;;;;;;6.23;3.00;;;14.90;98.00;;;;;;5074663;28;20452;-66
2023/06/05 00:59:53;;;;;;;5.17;2.77;;;14.80;98.00;;;;;;5074930;28;20574;-67
2023/06/05 01:02:20;;;;;;;3.23;2.37;;;14.80;98.00;;;;;;5074715;28;20545;-66
2023/06/05 01:04:50;;;;;;;4.77;2.70;;;14.60;98.00;;;;;;5074366;28;20456;-66
2023/06/05 01:07:18;;;;;;;4.00;2.70;;;14.60;98.00;;;;;;5074776;28;20459;-67
2023/06/05 01:09:45;;;;;;;4.47;2.53;;;14.70;98.00;;;;;;5074211;28;20453;-66
2023/06/05 01:12:21;;;;;;;5.93;3.13;;;14.70;98.00;;;;;;5074407;28;20484;-67
2023/06/05 01:14:51;;;;;;;5.20;2.60;;;14.80;98.00;;;;;;5074375;28;20519;-67
2023/06/05 01:17:20;;;;;;;4.20;2.40;;;14.70;98.00;;;;;;5074336;28;20807;-66
2023/06/05 01:19:49;;;;;;;3.93;2.60;;;14.60;98.00;;;;;;5074119;28;20451;-67
2023/06/05 01:22:17;;;;;;;3.93;2.67;;;14.70;98.00;;;;;;5074224;28;20453;-66
2023/06/05 01:24:47;;;;;;;5.03;2.70;;;14.80;98.00;;;;;;5074189;28;21017;-67
2023/06/05 01:27:16;;;;;;;3.90;2.60;;;14.70;98.00;;;;;;5074289;28;20816;-67
2023/06/05 01:29:54;;;;;;;4.30;2.77;;;14.60;98.00;;;;;;5074115;28;20488;-67
2023/06/05 01:32:29;;;;;;;4.50;2.80;;;14.70;98.00;;;;;;5074104;28;20523;-67
2023/06/05 01:35:01;;;;;;;4.47;3.00;;;14.60;98.00;;;;;;5074277;28;20467;-67
2023/06/05 01:37:36;;;;;;;4.00;2.80;;;14.50;98.00;;;;;;5073956;28;20457;-67
2023/06/05 01:40:06;;;;;;;4.60;2.70;;;14.50;98.00;;;;;;5074317;28;20842;-67
2023/06/05 01:42:34;;;;;;;3.63;2.67;;;14.40;98.00;;;;;;5074077;28;20589;-66
2023/06/05 01:45:02;;;;;;;6.43;3.07;;;14.20;98.00;;;;;;5074120;28;20464;-67
2023/06/05 01:47:31;;;;;;;5.67;3.07;;;14.20;98.00;;;;;;5073414;28;20484;-67
2023/06/05 01:49:58;;;;;;;6.50;3.10;;;14.20;98.00;;;;;;5074073;28;20452;-66
2023/06/05 01:52:26;;;;;;;5.93;3.20;;;14.20;98.00;;;;;;5073934;28;20484;-67
2023/06/05 01:54:54;;;;;;;3.53;2.50;;;14.20;98.00;;;;;;5073693;28;20797;-66
2023/06/05 01:57:24;;;;;;;4.60;2.90;;;14.10;98.00;;;;;;5073692;28;21053;-67
2023/06/05 01:59:53;;;;;;;4.57;2.60;;;14.10;98.00;;;;;;5073550;28;21022;-66
2023/06/05 02:02:21;;;;;;;4.63;2.80;;;14.10;98.00;;;;;;5073244;28;20500;-67
2023/06/05 02:04:48;;;;;;;4.70;2.50;;;14.10;98.00;;;;;;5073302;28;20510;-66
2023/06/05 02:07:15;;;;;;;5.30;2.67;;;14.00;98.00;;;;;;5073374;28;20499;-66
2023/06/05 02:09:43;;;;;;;4.03;2.70;;;14.00;98.00;;;;;;5073060;28;20457;-66
2023/06/05 02:12:14;;;;;;;4.70;3.10;;;14.00;98.00;;;;;;5073419;28;20484;-67
2023/06/05 02:14:45;;;;;;;5.77;2.83;;;14.00;98.00;;;;;;5073164;28;21010;-67
2023/06/05 02:17:13;;;;;;;4.03;2.90;;;14.20;98.00;;;;;;5073228;28;20548;-67
2023/06/05 02:19:40;;;;;;;3.00;2.30;;;14.20;98.00;;;;;;5073208;28;20445;-66
2023/06/05 02:22:07;;;;;;;5.13;3.17;;;14.10;98.00;;;;;;5072982;28;20456;-66
2023/06/05 02:24:35;;;;;;;5.67;2.80;;;13.80;98.00;;;;;;5055021;28;20961;-66
2023/06/05 02:27:02;;;;;;;5.03;2.90;;;13.60;98.00;;;;;;5073018;28;20555;-67
2023/06/05 02:29:29;;;;;;;5.00;2.77;;;13.50;98.00;;;;;;5055293;28;20445;-67
2023/06/05 02:31:58;;;;;;;4.13;2.53;;;13.60;98.00;;;;;;5072930;28;20481;-66
2023/06/05 02:34:25;;;;;;;5.70;3.17;;;13.50;98.00;;;;;;5072703;28;20469;-66
2023/06/05 02:36:52;;;;;;;6.67;2.90;;;13.40;98.00;;;;;;5055284;28;20547;-66
2023/06/05 02:39:19;;;;;;;5.50;3.00;;;13.40;98.00;;;;;;5072879;28;20784;-66
2023/06/05 02:41:46;;;;;;;5.13;2.70;;;13.50;98.00;;;;;;5055222;28;20468;-67
2023/06/05 02:44:14;;;;;;;4.40;2.83;;;13.60;98.00;;;;;;5072894;28;20934;-67
2023/06/05 02:46:41;;;;;;;4.40;2.70;;;13.50;98.00;;;;;;5073086;28;20465;-66
2023/06/05 02:49:10;;;;;;;5.90;2.97;;;13.50;98.00;;;;;;5072562;28;20519;-67
2023/06/05 02:51:37;;;;;;;5.20;2.77;;;13.40;98.00;;;;;;5072662;28;20480;-66
2023/06/05 02:54:04;;;;;;;5.13;2.87;;;13.20;98.00;;;;;;5072568;28;21018;-67
2023/06/05 02:56:37;;;;;;;8.70;2.90;;;13.30;98.00;;;;;;5072557;28;20942;-66
2023/06/05 02:59:04;;;;;;;4.13;2.53;;;13.30;98.00;;;;;;5071714;28;20519;-66
2023/06/05 03:01:34;;;;;;;3.13;2.60;;;13.30;98.00;;;;;;5054430;28;20479;-67
2023/06/05 03:04:02;;;;;;;5.00;3.13;;;13.30;98.00;;;;;;5054248;28;20972;-66
2023/06/05 03:06:43;;;;;;;10.23;3.07;;;13.20;98.00;;;;;;5072236;28;20456;-67
2023/06/05 03:09:11;;;;;;;6.80;2.67;;;13.30;98.00;;;;;;5072199;28;20453;-67
2023/06/05 03:11:38;;;;;;;4.80;2.67;;;13.20;98.00;;;;;;5072020;28;20480;-66
2023/06/05 03:14:05;;;;;;;4.00;2.50;;;13.00;98.00;;;;;;5072099;28;20457;-66
2023/06/05 03:16:37;;;;;;;5.73;2.87;;;13.20;98.00;;;;;;5072139;28;20456;-66
2023/06/05 03:19:04;;;;;;;5.63;3.00;;;13.10;98.00;;;;;;5072150;28;20452;-67
2023/06/05 03:21:33;;;;;;;4.57;2.87;;;12.90;98.00;;;;;;5071993;28;20460;-66
2023/06/05 03:24:01;;;;;;;6.00;3.13;;;12.80;98.00;;;;;;5072200;28;20482;-66
2023/06/05 03:26:28;;;;;;;3.70;2.67;;;13.00;98.00;;;;;;5071870;28;20457;-67
2023/06/05 03:28:55;;;;;;;4.70;3.00;;;12.90;98.00;;;;;;5071744;28;20453;-66
2023/06/05 03:31:25;;;;;;;5.20;3.00;;;12.80;98.00;;;;;;5071809;28;20937;-66
2023/06/05 03:33:52;;;;;;;5.60;2.90;;;12.80;98.00;;;;;;5071891;28;20445;-66
2023/06/05 03:36:19;;;;;;;5.37;3.00;;;12.80;98.00;;;;;;5071884;28;20445;-67
2023/06/05 03:38:48;;;;;;;4.43;2.80;;;12.60;98.00;;;;;;5071932;28;20454;-67
2023/06/05 03:41:18;;;;;;;5.47;2.73;;;12.80;98.00;;;;;;5072267;28;20457;-66
2023/06/05 03:43:45;;;;;;;6.10;3.17;;;12.70;98.00;;;;;;5071775;28;20465;-66
2023/06/05 03:46:18;;;;;;;4.40;2.80;;;12.80;98.00;;;;;;5072080;28;20449;-67
2023/06/05 03:48:45;;;;;;;6.53;2.90;;;12.80;98.00;;;;;;5071640;28;20456;-66
2023/06/05 03:51:13;;;;;;;4.73;3.00;;;12.80;98.00;;;;;;5071732;28;20473;-66
2023/06/05 03:53:43;;;;;;;5.20;2.73;;;12.80;98.00;;;;;;5071609;28;20459;-66
2023/06/05 03:56:12;;;;;;;6.27;3.20;;;12.60;98.00;;;;;;5071845;28;20457;-67
2023/06/05 03:58:39;;;;;;;5.63;2.87;;;12.70;98.00;;;;;;5071695;28;20827;-66
2023/06/05 04:01:06;;;;;;;6.20;3.53;;;12.80;98.00;;;;;;5071590;28;20472;-67
2023/06/05 04:03:37;;;;;;;5.30;3.10;;;12.90;98.00;;;;;;5071454;28;20471;-66
2023/06/05 04:06:04;;;;;;;5.20;3.07;;;12.80;98.00;;;;;;5071609;28;20544;-67
2023/06/05 04:08:32;;;;;;;3.90;2.87;;;12.80;98.00;;;;;;5071513;28;20448;-66
2023/06/05 04:10:59;;;;;;;4.83;2.90;;;12.90;98.00;;;;;;5072830;28;20462;-66
2023/06/05 04:13:27;;;;;;;6.27;3.33;;;12.80;98.00;;;;;;5075430;28;20453;-66
2023/06/05 04:15:54;;;;;;;5.43;3.00;;;12.90;98.00;;;;;;5075684;28;20462;-66
2023/06/05 04:18:22;;;;;;;6.90;3.23;;;12.80;98.00;;;;;;5075355;28;20502;-66
2023/06/05 04:20:58;;;;;;;6.03;3.37;;;12.80;98.00;;;;;;5075417;28;20453;-67
2023/06/05 04:23:25;;;;;;;6.30;3.70;;;12.90;98.00;;;;;;5075336;28;20946;-67
2023/06/05 04:25:54;;;;;;;4.97;2.90;;;12.80;98.00;;;;;;5075500;28;20468;-66
2023/06/05 04:28:22;;;;;;;5.30;3.00;;;12.90;98.00;;;;;;5075205;28;20453;-66
2023/06/05 04:30:50;;;;;;;6.10;3.23;;;13.00;98.00;;;;;;5075355;28;20937;-67
2023/06/05 04:33:17;;;;;;;5.60;2.90;;;13.10;98.00;;;;;;5074935;28;20488;-66
2023/06/05 04:35:44;;;;;;;6.90;3.53;;;13.20;98.00;;;;;;5075548;28;20456;-66
2023/06/05 04:38:11;;;;;;;5.20;3.10;;;13.30;98.00;;;;;;5075212;28;20860;-66
2023/06/05 04:40:38;;;;;;;9.50;3.30;;;13.40;98.00;;;;;;5074906;28;20543;-66
2023/06/05 04:43:05;;;;;;;4.07;2.77;;;13.50;98.00;;;;;;5074749;28;20498;-66
2023/06/05 04:45:32;;;;;;;5.80;3.00;;;13.70;98.00;;;;;;5074926;28;20525;-66
2023/06/05 04:48:02;;;;;;;4.40;2.77;;;13.80;98.00;;;;;;5074724;28;20483;-66
2023/06/05 04:50:30;;;;;;;5.80;2.83;;;13.90;98.00;;;;;;5074830;28;20471;-65
2023/06/05 04:52:57;;;;;;;5.57;2.97;;;13.60;98.00;;;;;;5074483;28;20542;-66
2023/06/05 04:55:25;;;;;;;6.70;3.33;;;13.50;98.00;;;;;;5074705;28;20835;-66
2023/06/05 04:57:54;;;;;;;5.63;3.30;;;13.40;98.00;;;;;;5074625;28;20467;-66
2023/06/05 05:00:21;;;;;;;5.80;3.30;;;13.60;98.00;;;;;;5074642;28;20495;-66
2023/06/05 05:02:48;;;;;;;5.27;3.33;;;13.60;98.00;;;;;;5056969;28;20464;-66
2023/06/05 05:05:17;;;;;;;5.03;3.20;;;13.70;98.00;;;;;;5074515;28;20444;-66
2023/06/05 05:07:45;;;;;;;5.30;3.10;;;13.70;98.00;;;;;;5074617;28;20460;-66
2023/06/05 05:10:13;;;;;;;5.80;3.30;;;13.80;98.00;;;;;;5074481;28;20485;-66
2023/06/05 05:12:40;;;;;;;5.90;3.20;;;13.90;98.00;;;;;;5074473;28;20896;-66
2023/06/05 05:15:08;;;;;;;6.63;3.57;;;14.00;98.00;;;;;;5074362;28;20530;-66
2023/06/05 05:17:36;;;;;;;5.37;3.37;;;14.30;98.00;;;;;;5074353;28;20523;-66
2023/06/05 05:20:06;;;;;;;5.57;3.53;;;14.40;98.00;;;;;;5074462;28;20452;-66
2023/06/05 05:22:35;;;;;;;5.47;3.17;;;14.50;98.00;;;;;;5056359;28;20483;-66
2023/06/05 05:25:02;;;;;;;9.07;3.57;;;14.70;98.00;;;;;;5074383;28;20457;-66
2023/06/05 05:27:29;;;;;;;7.97;3.70;;;14.70;98.00;;;;;;5056808;28;20459;-66
2023/06/05 05:29:56;;;;;;;6.37;3.60;;;14.80;98.00;;;;;;5056932;28;20484;-66
2023/06/05 05:32:23;;;;;;;6.83;3.77;;;14.90;98.00;;;;;;5074216;28;20484;-66
2023/06/05 05:34:51;;;;;;;6.07;3.67;;;15.10;98.00;;;;;;5074016;28;20453;-66
2023/06/05 05:37:18;;;;;;;7.17;4.10;;;15.20;98.00;;;;;;5073844;28;20460;-66
2023/06/05 05:39:47;;;;;;;7.03;3.60;;;15.20;98.00;;;;;;5073864;28;20821;-67
2023/06/05 05:42:14;;;;;;;5.60;3.40;;;15.30;98.00;;;;;;5073897;28;20455;-66
2023/06/05 05:44:42;;;;;;;8.27;3.37;;;15.40;98.00;;;;;;5055533;28;20453;-62
2023/06/05 05:47:11;;;;;;;5.10;3.70;;;15.40;98.00;;;;;;5073164;28;20464;-62
2023/06/05 05:49:38;;;;;;;7.50;3.70;;;15.20;98.00;;;;;;5073018;28;20459;-62
2023/06/05 05:52:05;;;;;;;7.77;2.97;;;15.20;98.00;;;;;;5072976;28;20476;-62
2023/06/05 05:54:33;;;;;;;5.53;3.40;;;15.20;98.00;;;;;;5072880;28;20518;-62
2023/06/05 05:57:01;;;;;;;5.43;3.57;;;15.50;98.00;;;;;;5073007;28;20453;-62
2023/06/05 05:59:28;;;;;;;5.33;3.03;;;15.60;98.00;;;;;;5072784;28;20459;-62
2023/06/05 06:01:56;;;;;;;5.30;3.10;;;15.70;98.00;;;;;;5072828;28;20457;-62
2023/06/05 06:04:23;;;;;;;5.87;3.57;;;15.80;98.00;;;;;;5072713;28;20452;-62
2023/06/05 06:06:52;;;;;;;7.00;3.80;;;15.90;98.00;;;;;;5072743;28;20515;-62
2023/06/05 06:09:19;;;;;;;5.93;3.63;;;16.00;98.00;;;;;;5072624;28;20453;-62
2023/06/05 06:11:47;;;;;;;8.73;3.73;;;16.10;98.00;;;;;;5072602;28;20453;-62
2023/06/05 06:14:16;;;;;;;7.93;3.80;;;16.30;98.00;;;;;;5054835;28;20481;-62
2023/06/05 06:16:43;;;;;;;6.60;3.87;;;16.40;98.00;;;;;;5072892;28;20516;-62
2023/06/05 06:19:14;;;;;;;4.77;3.37;;;16.40;98.00;;;;;;5072409;28;20575;-62
2023/06/05 06:21:41;;;;;;;14.10;4.10;;;16.40;98.00;;;;;;5072588;28;20511;-62
2023/06/05 06:24:09;;;;;;;8.53;3.63;;;16.50;98.00;;;;;;5072887;28;20594;-62
2023/06/05 06:26:38;;;;;;;7.40;3.80;;;16.50;98.00;;;;;;5072543;28;20453;-63
2023/06/05 06:29:05;;;;;;;9.40;4.27;;;16.50;98.00;;;;;;5072105;28;20510;-63
2023/06/05 06:31:35;;;;;;;6.10;3.50;;;16.60;98.00;;;;;;5072254;28;20822;-63
2023/06/05 06:34:01;;;;;;;6.03;3.77;;;16.70;98.00;;;;;;5037919;28;20485;-62
2023/06/05 06:36:28;;;;;;;6.87;3.60;;;16.80;98.00;;;;;;5072021;28;20514;-62
2023/06/05 06:38:56;;;;;;;14.83;4.17;;;17.00;98.00;;;;;;5072132;28;20480;-63
2023/06/05 06:41:23;;;;;;;10.50;3.67;;;17.10;98.00;;;;;;5071538;28;20449;-62
2023/06/05 06:43:50;;;;;;;8.10;3.30;;;17.20;98.00;;;;;;5054569;28;20819;-62
2023/06/05 06:46:17;;;;;;;6.70;3.10;;;17.30;98.00;;;;;;5071877;28;20503;-63
2023/06/05 06:48:46;;;;;;;6.80;3.97;;;17.40;98.00;;;;;;5072062;28;20449;-62
2023/06/05 06:51:13;;;;;;;5.80;3.77;;;17.50;98.00;;;;;;5071839;28;20465;-63
2023/06/05 06:53:41;;;;;;;4.97;3.30;;;17.70;98.00;;;;;;5071844;28;20489;-62
2023/06/05 06:56:08;;;;;;;5.97;3.70;;;17.70;98.00;;;;;;5071522;28;20522;-63
2023/06/05 06:58:35;;;;;;;7.80;3.83;;;17.90;98.00;;;;;;5071816;28;20456;-62
2023/06/05 07:01:03;;;;;;;5.97;3.20;;;18.00;98.00;;;;;;5071586;28;20551;-63
2023/06/05 07:03:30;;;;;;;8.57;3.33;;;18.00;98.00;;;;;;5071596;28;20535;-63
2023/06/05 07:05:58;;;;;;;6.93;3.13;;;18.10;98.00;;;;;;5071731;28;20485;-63
2023/06/05 07:08:25;;;;;;;5.03;3.40;;;18.30;98.00;;;;;;5071418;28;20942;-63
2023/06/05 07:10:56;;;;;;;5.17;3.20;;;18.30;98.00;;;;;;5071229;28;20457;-62
2023/06/05 07:13:23;;;;;;;6.27;3.57;;;18.50;98.00;;;;;;5071650;28;20477;-63
2023/06/05 07:15:51;;;;;;;6.63;3.60;;;18.50;98.00;;;;;;5071336;28;20468;-63
2023/06/05 07:18:19;;;;;;;5.70;3.13;;;18.60;98.00;;;;;;5071899;28;20456;-63
2023/06/05 07:20:46;;;;;;;5.13;3.20;;;18.80;98.00;;;;;;5071348;28;20552;-63
2023/06/05 07:23:17;;;;;;;6.03;3.30;;;18.90;98.00;;;;;;5090698;28;20458;-62
2023/06/05 07:25:44;;;;;;;5.43;3.40;;;19.10;97.30;;;;;;5091584;28;21053;-62
2023/06/05 07:28:12;;;;;;;4.50;3.30;;;19.30;98.00;;;;;;5091271;28;20538;-63
2023/06/05 07:30:42;;;;;;;6.50;3.77;;;19.50;98.00;;;;;;5091225;28;20983;-63
2023/06/05 07:33:10;;;;;;;5.70;3.67;;;19.60;97.70;;;;;;5091133;28;20510;-62
2023/06/05 07:35:38;;;;;;;5.90;3.83;;;19.70;97.70;;;;;;5091157;28;20509;-63
2023/06/05 07:38:05;;;;;;;6.07;3.47;;;19.90;96.90;;;;;;5091486;28;20539;-63
2023/06/05 07:40:35;;;;;;;6.80;3.90;;;20.00;96.20;;;;;;5073242;28;20509;-62
2023/06/05 07:43:02;;;;;;;7.30;3.87;;;20.10;98.00;;;;;;5091083;28;20459;-63
2023/06/05 07:45:29;;;;;;;6.20;3.67;;;20.20;96.00;;;;;;5090713;28;20873;-63
2023/06/05 07:47:57;;;;;;;5.70;3.50;;;20.30;95.50;;;;;;5073403;28;20985;-62
2023/06/05 07:50:25;;;;;;;7.70;3.90;;;20.40;95.70;;;;;;5091076;28;20861;-63
2023/06/05 07:52:52;;;;;;;6.50;4.07;;;20.70;97.50;;;;;;5091049;28;20905;-63
2023/06/05 07:55:20;;;;;;;7.93;4.23;;;20.70;96.80;;;;;;5090481;28;20448;-63
2023/06/05 07:57:48;;;;;;;10.97;4.53;;;20.90;97.10;;;;;;5090900;28;20518;-63
2023/06/05 08:00:19;;;;;;;7.60;3.97;;;21.10;97.30;;;;;;5091039;28;20452;-63
2023/06/05 08:02:46;;;;;;;7.93;4.43;;;21.20;95.50;;;;;;5091297;28;20510;-63
2023/06/05 08:05:14;;;;;;;6.83;3.80;;;21.40;94.10;;;;;;5091005;28;20452;-63
2023/06/05 08:07:41;;;;;;;7.87;4.70;;;21.50;95.70;;;;;;5091201;28;20859;-63
2023/06/05 08:10:10;;;;;;;6.20;4.20;;;21.60;95.20;;;;;;5090857;28;20452;-64
2023/06/05 08:12:37;;;;;;;8.20;4.13;;;21.70;96.80;;;;;;5073063;28;20997;-63
2023/06/05 08:15:07;;;;;;;8.37;4.43;;;21.90;97.30;;;;;;5091418;28;20455;-63
2023/06/05 08:17:34;;;;;;;8.50;4.43;;;22.00;95.30;;;;;;5091151;28;20470;-63
2023/06/05 08:20:01;;;;;;;7.20;4.30;;;22.10;95.70;;;;;;5091087;28;20839;-63
2023/06/05 08:22:29;;;;;;;6.90;4.20;;;22.20;94.90;;;;;;5091121;28;20459;-63
2023/06/05 08:24:59;;;;;;;7.80;4.20;;;22.30;94.00;;;;;;5090856;28;20555;-63
2023/06/05 08:27:26;;;;;;;6.70;4.30;;;22.40;93.90;;;;;;5090796;28;20456;-63
2023/06/05 08:29:53;;;;;;;8.90;4.33;;;22.50;95.00;;;;;;5090810;28;20456;-63
2023/06/05 08:32:23;;;;;;;8.10;4.40;;;22.60;94.30;;;;;;5090455;28;20462;-63
2023/06/05 08:34:50;;;;;;;6.17;3.80;;;22.70;94.30;;;;;;5090236;28;20475;-63
2023/06/05 08:37:19;;;;;;;7.90;4.70;;;22.80;94.60;;;;;;5090458;28;20833;-63
2023/06/05 08:39:46;;;;;;;8.53;4.67;;;23.00;94.50;;;;;;5090520;28;20456;-64
2023/06/05 08:42:14;;;;;;;8.47;4.60;;;23.10;95.30;;;;;;5090550;28;20456;-63
2023/06/05 08:44:42;;;;;;;9.43;4.63;;;23.20;92.70;;;;;;5090444;28;21008;-62
2023/06/05 08:47:11;;;;;;;6.63;4.33;;;23.30;94.50;;;;;;5090398;28;20455;-62
2023/06/05 08:49:43;;;;;;;8.00;4.40;;;23.40;92.90;;;;;;5090453;28;20542;-62
2023/06/05 08:52:13;;;;;;;11.23;4.67;;;23.50;92.20;;;;;;5090214;28;20815;-61
2023/06/05 08:54:42;;;;;;;9.60;3.70;;;23.70;92.70;;;;;;5090710;28;20490;-63
2023/06/05 08:57:10;;;;;;;8.30;4.77;;;23.80;92.50;;;;;;5090624;28;20799;-62
2023/06/05 08:59:38;;;;;;;7.03;4.10;;;23.80;90.90;;;;;;5093444;28;20508;-61
2023/06/05 09:02:05;;;;;;;9.50;4.60;;;23.90;92.70;;;;;;5093890;28;20505;-62
2023/06/05 09:04:39;;;;;;;7.07;4.50;;;24.10;92.00;;;;;;5094688;28;20491;-62
2023/06/05 09:07:08;;;;;;;7.77;4.80;;;24.20;90.40;;;;;;5094258;28;20458;-62
2023/06/05 09:09:35;;;;;;;6.10;4.07;;;24.20;89.50;;;;;;5093984;28;20455;-62
2023/06/05 09:12:04;;;;;;;8.40;4.57;;;24.30;90.00;;;;;;5094089;28;20878;-62
2023/06/05 09:14:32;;;;;;;7.80;4.37;;;24.50;88.70;;;;;;5094259;28;21019;-62
2023/06/05 09:17:00;;;;;;;7.97;4.90;;;24.60;89.00;;;;;;5094288;28;20447;-63
2023/06/05 09:19:36;;;;;;;7.17;4.40;;;24.80;89.20;;;;;;5094191;28;21005;-62
2023/06/05 09:22:05;;;;;;;8.00;4.47;;;24.90;85.70;;;;;;5094110;28;20456;-63
2023/06/05 09:24:34;;;;;;;8.00;4.30;;;25.00;85.70;;;;;;5092824;28;20458;-62
2023/06/05 09:27:02;;;;;;;8.60;4.77;;;25.20;85.30;;;;;;5093821;28;20459;-63
2023/06/05 09:29:31;;;;;;;7.33;4.50;;;25.30;84.30;;;;;;5094107;28;20460;-63
2023/06/05 09:31:59;;;;;;;7.77;4.30;;;25.10;83.80;;;;;;5094071;28;20482;-64
2023/06/05 09:34:28;;;;;;;8.47;4.20;;;25.00;82.80;;;;;;5093722;28;20472;-64
2023/06/05 09:36:57;;;;;;;5.30;3.63;;;25.10;83.90;;;;;;5093958;28;20460;-64
2023/06/05 09:39:26;;;;;;;7.30;4.37;;;25.40;82.40;;;;;;5093726;28;20460;-64
2023/06/05 09:41:57;;;;;;;6.07;4.13;;;25.70;82.80;;;;;;5093697;28;20452;-64
2023/06/05 09:44:26;;;;;;;7.30;3.97;;;26.00;82.70;;;;;;5076054;28;20455;-64
2023/06/05 09:46:59;;;;;;;9.40;4.50;;;26.20;81.40;;;;;;5094090;28;20460;-63
2023/06/05 09:49:30;;;;;;;8.33;4.40;;;26.40;80.90;;;;;;5093766;28;20460;-63
2023/06/05 09:51:59;;;;;;;6.37;4.10;;;26.70;80.70;;;;;;5093800;28;20495;-63
2023/06/05 09:54:28;;;;;;;7.83;4.20;;;27.00;79.00;;;;;;5093731;28;20494;-63
2023/06/05 09:56:59;;;;;;;6.77;3.97;;;27.10;79.60;;;;;;5093764;28;20487;-63
2023/06/05 09:59:31;;;;;;;7.57;4.57;;;27.40;79.80;;;;;;5093647;28;20464;-63
2023/06/05 10:02:02;;;;;;;7.40;4.60;;;27.50;77.50;;;;;;5093726;28;20505;-63
2023/06/05 10:04:31;;;;;;;5.63;3.83;;;27.40;76.80;;;;;;5093670;28;20452;-63
2023/06/05 10:07:01;;;;;;;8.20;4.60;;;27.20;76.40;;;;;;5093653;28;20460;-63
2023/06/05 10:09:30;;;;;;;6.00;3.93;;;26.90;77.10;;;;;;5093292;28;21038;-63
2023/06/05 10:12:00;;;;;;;6.57;4.23;;;26.60;77.20;;;;;;5093487;28;20550;-63
2023/06/05 10:14:27;;;;;;;9.90;4.20;;;26.40;77.80;;;;;;5093393;28;20588;-63
2023/06/05 10:16:56;;;;;;;7.20;3.70;;;26.20;78.00;;;;;;5093251;28;21095;-63
2023/06/05 10:19:24;;;;;;;6.30;4.27;;;25.80;77.30;;;;;;5093185;28;20503;-63
2023/06/05 10:21:52;;;;;;;7.87;4.17;;;25.70;79.10;;;;;;5093132;28;20458;-64
2023/06/05 10:24:24;;;;;;;7.43;4.27;;;25.40;78.20;;;;;;5074793;28;20464;-63
2023/06/05 10:27:27;;;;;;;10.17;4.53;;;25.10;79.20;;;;;;5093104;28;20455;-63
2023/06/05 10:30:25;;;;;;;6.07;4.00;;;25.00;78.90;;;;;;5074723;28;20532;-64
2023/06/05 10:33:09;;;;;;;5.53;3.60;;;25.10;79.50;;;;;;5077418;28;20853;-63
2023/06/05 10:35:48;;;;;;;6.80;3.83;;;25.50;79.50;;;;;;5092549;28;20456;-63
2023/06/05 10:38:20;;;;;;;7.23;4.03;;;26.20;78.80;;;;;;5092891;28;20908;-63
2023/06/05 10:40:49;;;;;;;6.27;4.03;;;26.50;75.90;;;;;;5092746;28;20452;-63
2023/06/05 10:43:31;;;;;;;6.20;4.13;;;26.90;76.10;;;;;;5092846;28;20498;-63
2023/06/05 10:45:59;;;;;;;8.67;4.40;;;27.30;75.00;;;;;;5092912;28;20459;-63
2023/06/05 10:49:04;;;;;;;7.37;4.43;;;27.50;73.10;;;;;;5092670;28;20456;-63
2023/06/05 10:51:39;;;;;;;6.40;4.00;;;27.60;72.70;;;;;;5090802;28;20467;-63
2023/06/05 10:54:09;;;;;;;6.13;4.03;;;27.90;74.40;;;;;;5092295;28;20521;-63
2023/06/05 10:57:00;;;;;;;7.80;4.17;;;28.10;71.60;;;;;;5092703;28;20542;-63
2023/06/05 10:59:30;;;;;;;5.50;3.60;;;28.50;72.20;;;;;;5092740;28;20471;-63
2023/06/05 11:02:28;;;;;;;6.00;3.90;;;28.70;72.70;;;;;;5092464;28;20462;-63
2023/06/05 11:05:14;;;;;;;8.60;3.77;;;29.00;71.30;;;;;;5057704;28;20513;-63
2023/06/05 11:07:42;;;;;;;9.03;4.30;;;29.30;71.60;;;;;;5073205;28;20448;-63
2023/06/05 11:10:15;;;;;;;6.53;3.93;;;29.40;68.70;;;;;;5091020;28;20456;-63
2023/06/05 11:12:59;;;;;;;4.53;3.30;;;29.40;68.60;;;;;;5090281;28;20459;-63
2023/06/05 11:15:40;;;;;;;6.40;3.77;;;29.30;69.40;;;;;;5056991;28;20575;-63
2023/06/05 11:18:39;;;;;;;6.40;4.10;;;28.80;68.30;;;;;;5070479;28;20463;-63
2023/06/05 11:21:08;;;;;;;5.87;3.80;;;28.20;69.40;;;;;;5007593;28;20456;-63
2023/06/05 11:23:35;;;;;;;7.33;4.20;;;27.90;70.50;;;;;;5041081;28;20537;-63
2023/06/05 11:26:40;;;;;;;8.07;3.83;;;27.70;71.60;;;;;;5054109;28;20464;-63
2023/06/05 11:29:13;;;;;;;6.73;3.90;;;28.00;70.80;;;;;;5051690;28;20472;-63
2023/06/05 11:31:43;;;;;;;5.60;3.70;;;28.50;67.80;;;;;;5071942;28;20555;-63
2023/06/05 11:34:13;;;;;;;6.43;4.03;;;29.00;70.90;;;;;;5071891;28;20489;-63
2023/06/05 11:36:40;;;;;;;6.40;4.17;;;29.50;68.60;;;;;;5071903;28;20500;-63
2023/06/05 11:39:07;;;;;;;7.50;4.50;;;29.90;67.50;;;;;;5071700;28;20453;-63
2023/06/05 11:41:35;;;;;;;6.50;3.93;;;30.20;65.30;;;;;;5071041;28;20515;-63
2023/06/05 11:44:02;;;;;;;7.93;4.43;;;30.60;66.40;;;;;;5069758;28;20486;-63
2023/06/05 11:46:39;;;;;;;6.00;4.17;;;30.80;66.70;;;;;;5070971;28;20525;-63
2023/06/05 11:49:08;;;;;;;5.90;3.80;;;31.10;65.50;;;;;;5081331;28;20452;-62
2023/06/05 11:51:36;;;;;;;5.73;3.83;;;31.00;66.60;;;;;;5090368;28;20538;-63
2023/06/05 11:54:05;;;;;;;5.37;4.00;;;31.30;62.90;;;;;;5077640;28;20918;-62
2023/06/05 11:56:33;;;;;;;5.03;3.80;;;31.60;64.10;;;;;;5072220;28;20463;-63
2023/06/05 11:59:01;;;;;;;5.97;4.03;;;31.80;64.80;;;;;;5072153;28;20459;-63
2023/06/05 12:01:32;;;;;;;6.43;4.10;;;31.90;63.90;;;;;;5071633;28;20969;-63
2023/06/05 12:04:08;;;;;;;6.53;4.33;;;31.40;63.10;;;;;;5071456;28;20544;-63
2023/06/05 12:06:42;;;;;;;6.10;4.10;;;31.10;64.10;;;;;;5071816;28;20464;-63
2023/06/05 12:09:10;;;;;;;12.77;4.50;;;30.60;64.20;;;;;;5071393;28;20488;-63
2023/06/05 12:11:38;;;;;;;6.53;4.20;;;30.90;64.80;;;;;;5071461;28;20456;-63
2023/06/05 12:14:06;;;;;;;6.17;3.70;;;31.10;63.20;;;;;;5071042;28;20563;-63
2023/06/05 12:16:34;;;;;;;7.63;4.60;;;31.40;62.60;;;;;;5071487;28;20448;-63
2023/06/05 12:19:03;;;;;;;6.83;4.10;;;31.60;63.20;;;;;;5071671;28;20445;-63
2023/06/05 12:21:33;;;;;;;5.97;4.10;;;31.50;64.70;;;;;;5071226;28;20441;-63
2023/06/05 12:24:04;;;;;;;6.57;4.10;;;31.80;62.40;;;;;;5071485;28;20445;-63
2023/06/05 12:26:48;;;;;;;6.83;4.30;;;31.90;61.60;;;;;;5071128;28;20475;-63
2023/06/05 12:29:17;;;;;;;6.10;3.90;;;31.40;61.10;;;;;;5071558;28;20460;-63
2023/06/05 12:31:44;;;;;;;7.20;4.13;;;30.80;61.70;;;;;;5072179;28;20543;-63
2023/06/05 12:34:12;;;;;;;5.63;3.93;;;30.20;63.70;;;;;;5057433;28;20553;-63
2023/06/05 12:36:42;;;;;;;6.97;4.00;;;29.60;65.20;;;;;;5057560;28;20930;-63
2023/06/05 12:39:12;;;;;;;6.40;4.33;;;29.70;65.10;;;;;;5074731;28;20471;-62
2023/06/05 12:41:39;;;;;;;7.17;4.63;;;30.20;65.30;;;;;;5075094;28;20798;-62
2023/06/05 12:44:08;;;;;;;6.87;4.30;;;30.70;62.40;;;;;;5093069;28;20554;-63
2023/06/05 12:46:36;;;;;;;8.07;4.50;;;31.20;62.10;;;;;;5095309;28;20516;-63
2023/06/05 12:49:05;;;;;;;5.80;4.17;;;31.20;61.90;;;;;;5095150;28;21016;-63
2023/06/05 12:51:32;;;;;;;7.43;4.40;;;30.80;63.40;;;;;;5095156;28;20452;-63
2023/06/05 12:54:01;;;;;;;8.10;4.67;;;30.20;64.50;;;;;;5095332;28;20464;-63
2023/06/05 12:56:29;;;;;;;7.50;3.90;;;29.80;64.90;;;;;;5084718;28;20461;-63